Time;durP1;ratioP1;P1;durP2;ratioP2;P2;SDS_P1;SDS_P2;PMS_P1;PMS_P2;Temp;Humidity;BMP_temperature;BMP_pressure;BME280_temperature;BME280_humidity;BME280_pressure;Samples;Min_cycle;Max_cycle;Signal;HPM_P1;HPM_P2
2022/11/24 00:02:04;;;;;;;36.05;9.68;;;;;;;;;;4970758;28;20049;-74
2022/11/24 00:04:30;;;;;;;32.10;7.63;;;;;;;;;;4968084;28;20026;-74
2022/11/24 00:06:56;;;;;;;30.33;6.18;;;;;;;;;;4966006;28;20039;-76
2022/11/24 00:09:22;;;;;;;44.65;7.07;;;;;;;;;;4970210;28;20045;-73
2022/11/24 00:11:48;;;;;;;35.00;6.75;;;;;;;;;;4968061;28;20046;-76
2022/11/24 00:14:14;;;;;;;29.95;7.57;;;;;;;;;;4969527;28;20033;-76
2022/11/24 00:16:40;;;;;;;34.47;6.40;;;;;;;;;;4976840;28;20042;-74
2022/11/24 00:19:08;;;;;;;39.00;6.60;;;;;;;;;;4970477;28;20109;-75
2022/11/24 00:21:35;;;;;;;41.03;5.82;;;;;;;;;;4976367;28;20037;-74
2022/11/24 00:24:01;;;;;;;32.13;5.28;;;;;;;;;;4968598;28;20031;-76
2022/11/24 00:26:31;;;;;;;26.08;5.40;;;;;;;;;;4971185;28;20483;-74
2022/11/24 00:29:01;;;;;;;26.17;5.82;;;;;;;;;;4972574;28;20093;-74
2022/11/24 00:31:34;;;;;;;37.43;5.83;;;;;;;;;;4972353;28;20189;-75
2022/11/24 00:34:01;;;;;;;43.75;5.63;;;;;;;;;;4959115;28;20322;-75
2022/11/24 00:36:28;;;;;;;25.02;5.07;;;;;;;;;;4950698;28;20121;-74
2022/11/24 00:39:02;;;;;;;29.23;5.40;;;;;;;;;;4953867;28;20038;-74
2022/11/24 00:41:29;;;;;;;32.65;5.18;;;;;;;;;;4967110;28;20070;-74
2022/11/24 00:43:55;;;;;;;26.05;5.60;;;;;;;;;;4968929;28;20031;-74
2022/11/24 00:46:40;;;;;;;27.92;5.35;;;;;;;;;;4967215;28;20023;-74
2022/11/24 00:49:06;;;;;;;35.50;5.43;;;;;;;;;;4967693;28;20044;-76
2022/11/24 00:51:32;;;;;;;32.38;6.60;;;;;;;;;;4972914;28;20045;-72
2022/11/24 00:53:59;;;;;;;28.42;5.55;;;;;;;;;;4975148;28;20109;-74
2022/11/24 00:56:26;;;;;;;27.50;5.60;;;;;;;;;;4971795;28;20054;-75
2022/11/24 00:58:52;;;;;;;29.08;5.03;;;;;;;;;;4975031;28;20078;-75
2022/11/24 01:01:23;;;;;;;33.00;6.07;;;;;;;;;;4969300;28;20477;-75
2022/11/24 01:03:50;;;;;;;28.45;5.47;;;;;;;;;;4969786;28;20122;-75
2022/11/24 01:06:19;;;;;;;36.63;6.65;;;;;;;;;;4971036;28;20023;-74
2022/11/24 01:08:45;;;;;;;28.10;5.13;;;;;;;;;;4972661;28;20039;-75
2022/11/24 01:11:25;;;;;;;32.60;5.75;;;;;;;;;;4972545;28;20103;-73
2022/11/24 01:13:53;;;;;;;41.63;6.57;;;;;;;;;;4970100;28;20061;-74
2022/11/24 01:16:27;;;;;;;32.30;6.15;;;;;;;;;;4972702;28;20034;-74
2022/11/24 01:18:54;;;;;;;32.55;4.55;;;;;;;;;;4975305;28;20038;-74
2022/11/24 01:21:20;;;;;;;33.83;5.53;;;;;;;;;;4971264;28;20033;-74
2022/11/24 01:23:46;;;;;;;38.42;6.30;;;;;;;;;;4969485;28;20511;-73
2022/11/24 01:26:14;;;;;;;31.98;5.00;;;;;;;;;;4970997;28;20101;-74
2022/11/24 01:28:40;;;;;;;28.73;6.60;;;;;;;;;;4971590;28;20055;-73
2022/11/24 01:31:07;;;;;;;29.98;5.75;;;;;;;;;;4971559;28;20030;-74
2022/11/24 01:33:33;;;;;;;32.45;5.78;;;;;;;;;;4974275;28;20038;-74
2022/11/24 01:35:59;;;;;;;28.77;5.65;;;;;;;;;;4969334;28;20022;-75
2022/11/24 01:38:26;;;;;;;26.00;4.80;;;;;;;;;;4970754;28;20034;-74
2022/11/24 01:41:06;;;;;;;33.15;6.05;;;;;;;;;;4970659;28;20216;-74
2022/11/24 01:43:33;;;;;;;32.70;5.60;;;;;;;;;;4966645;28;20035;-74
2022/11/24 01:46:03;;;;;;;33.42;6.50;;;;;;;;;;4969994;28;20023;-75
2022/11/24 01:48:35;;;;;;;29.38;4.55;;;;;;;;;;4973747;28;20117;-73
2022/11/24 01:51:13;;;;;;;30.80;4.88;;;;;;;;;;4970573;28;20023;-74
2022/11/24 01:53:42;;;;;;;21.15;3.92;;;;;;;;;;4974055;28;20069;-74
2022/11/24 01:56:08;;;;;;;19.85;4.57;;;;;;;;;;4975586;28;20073;-74
2022/11/24 01:58:36;;;;;;;25.48;4.45;;;;;;;;;;4954899;28;20114;-74
2022/11/24 02:01:01;;;;;;;29.00;4.90;;;;;;;;;;4972163;28;20061;-74
2022/11/24 02:03:30;;;;;;;27.35;4.18;;;;;;;;;;4969239;28;20038;-75
2022/11/24 02:06:02;;;;;;;30.67;4.50;;;;;;;;;;4955817;28;20058;-73
2022/11/24 02:08:28;;;;;;;22.83;4.63;;;;;;;;;;4970300;28;20034;-73
2022/11/24 02:10:54;;;;;;;24.35;5.35;;;;;;;;;;4968989;28;20031;-73
2022/11/24 02:13:21;;;;;;;21.58;4.00;;;;;;;;;;4965781;28;20023;-73
2022/11/24 02:15:48;;;;;;;27.92;5.13;;;;;;;;;;4954048;28;20449;-73
2022/11/24 02:18:14;;;;;;;24.42;4.32;;;;;;;;;;4951635;28;20125;-73
2022/11/24 02:20:40;;;;;;;26.15;5.03;;;;;;;;;;4970592;28;20157;-74
2022/11/24 02:23:09;;;;;;;21.88;4.22;;;;;;;;;;4970971;28;20065;-74
2022/11/24 02:25:58;;;;;;;24.63;5.15;;;;;;;;;;4970356;28;20058;-73
2022/11/24 02:28:25;;;;;;;23.92;4.40;;;;;;;;;;4967763;28;20081;-74
2022/11/24 02:30:52;;;;;;;19.55;4.30;;;;;;;;;;4969265;28;20513;-74
2022/11/24 02:33:20;;;;;;;27.92;5.05;;;;;;;;;;4972268;28;20065;-74
2022/11/24 02:35:46;;;;;;;26.35;6.03;;;;;;;;;;4964780;28;20027;-74
2022/11/24 02:38:13;;;;;;;25.83;4.75;;;;;;;;;;4969075;28;20440;-73
2022/11/24 02:40:41;;;;;;;27.52;4.45;;;;;;;;;;4951623;28;20455;-73
2022/11/24 02:43:14;;;;;;;22.38;4.20;;;;;;;;;;4972412;28;20129;-73
2022/11/24 02:45:41;;;;;;;23.20;5.35;;;;;;;;;;4969104;28;20046;-72
2022/11/24 02:48:07;;;;;;;26.52;5.20;;;;;;;;;;4966574;28;20118;-74
2022/11/24 02:50:33;;;;;;;26.00;4.72;;;;;;;;;;4969350;28;20066;-74
2022/11/24 02:52:59;;;;;;;22.98;3.97;;;;;;;;;;4969994;28;20465;-73
2022/11/24 02:55:25;;;;;;;26.05;5.65;;;;;;;;;;4970680;28;20040;-74
2022/11/24 02:57:51;;;;;;;12.13;3.55;;;;;;;;;;4959530;28;20073;-73
2022/11/24 03:00:17;;;;;;;23.20;4.30;;;;;;;;;;4970569;28;20050;-73
2022/11/24 03:02:43;;;;;;;21.25;3.45;;;;;;;;;;4971003;28;20041;-74
2022/11/24 03:05:10;;;;;;;18.42;4.38;;;;;;;;;;4967898;28;20042;-74
2022/11/24 03:07:36;;;;;;;29.10;5.45;;;;;;;;;;4967187;28;20076;-73
2022/11/24 03:10:03;;;;;;;26.73;4.03;;;;;;;;;;4950097;28;20042;-74
2022/11/24 03:12:29;;;;;;;21.55;4.57;;;;;;;;;;4973281;28;20035;-73
2022/11/24 03:14:55;;;;;;;16.58;3.45;;;;;;;;;;4967875;28;20098;-74
2022/11/24 03:17:21;;;;;;;25.50;4.32;;;;;;;;;;4969629;28;20038;-74
2022/11/24 03:19:47;;;;;;;15.52;4.03;;;;;;;;;;4967320;28;20041;-74
2022/11/24 03:22:14;;;;;;;19.58;4.22;;;;;;;;;;4968164;28;20162;-74
2022/11/24 03:24:40;;;;;;;22.55;3.92;;;;;;;;;;4967310;28;20045;-74
2022/11/24 03:27:06;;;;;;;22.20;3.40;;;;;;;;;;4970818;28;20500;-73
2022/11/24 03:29:32;;;;;;;15.02;3.58;;;;;;;;;;4965889;28;20132;-74
2022/11/24 03:31:58;;;;;;;24.02;4.78;;;;;;;;;;4970012;28;20034;-74
2022/11/24 03:34:24;;;;;;;10.65;3.47;;;;;;;;;;4967432;28;20134;-74
2022/11/24 03:36:50;;;;;;;10.35;2.67;;;;;;;;;;4970017;28;20069;-74
2022/11/24 03:39:16;;;;;;;14.55;3.03;;;;;;;;;;4967220;28;21479;-74
2022/11/24 03:41:42;;;;;;;14.40;2.63;;;;;;;;;;4966651;28;20038;-74
2022/11/24 03:44:08;;;;;;;15.48;2.90;;;;;;;;;;4969030;28;20026;-75
2022/11/24 03:46:34;;;;;;;10.23;2.20;;;;;;;;;;4969249;28;20452;-74
2022/11/24 03:49:00;;;;;;;14.70;2.80;;;;;;;;;;4974780;28;20063;-74
2022/11/24 03:51:26;;;;;;;11.57;3.22;;;;;;;;;;4968053;28;20054;-74
2022/11/24 03:53:52;;;;;;;12.10;2.67;;;;;;;;;;4967122;28;20308;-73
2022/11/24 03:56:18;;;;;;;15.40;3.63;;;;;;;;;;4967508;28;20476;-73
2022/11/24 03:58:44;;;;;;;18.45;3.67;;;;;;;;;;4977271;28;20058;-72
2022/11/24 04:01:10;;;;;;;21.70;4.13;;;;;;;;;;4967102;28;20378;-73
2022/11/24 04:03:36;;;;;;;18.00;4.30;;;;;;;;;;4951261;28;20469;-74
2022/11/24 04:06:02;;;;;;;20.33;3.65;;;;;;;;;;4951527;28;20121;-73
2022/11/24 04:08:28;;;;;;;23.40;4.55;;;;;;;;;;4936281;28;20081;-73
2022/11/24 04:10:54;;;;;;;22.55;4.72;;;;;;;;;;4969644;28;20058;-76
2022/11/24 04:13:23;;;;;;;20.83;4.28;;;;;;;;;;4974323;28;20100;-74
2022/11/24 04:15:49;;;;;;;25.35;4.95;;;;;;;;;;4956477;28;20425;-73
2022/11/24 04:18:15;;;;;;;19.85;4.10;;;;;;;;;;4954462;28;20109;-75
2022/11/24 04:20:42;;;;;;;25.23;5.93;;;;;;;;;;4966012;28;20142;-73
2022/11/24 04:23:09;;;;;;;23.52;4.22;;;;;;;;;;4961064;28;20053;-74
2022/11/24 04:25:35;;;;;;;27.08;5.03;;;;;;;;;;4968558;28;20195;-74
2022/11/24 04:28:01;;;;;;;29.42;5.25;;;;;;;;;;4969754;28;20031;-75
2022/11/24 04:30:28;;;;;;;22.67;5.05;;;;;;;;;;4959359;28;20035;-75
2022/11/24 04:32:54;;;;;;;28.00;5.70;;;;;;;;;;4970369;28;20424;-74
2022/11/24 04:35:20;;;;;;;25.73;5.45;;;;;;;;;;4972894;28;20034;-75
2022/11/24 04:37:46;;;;;;;29.55;6.28;;;;;;;;;;4970134;28;20039;-76
2022/11/24 04:40:14;;;;;;;29.27;6.15;;;;;;;;;;4969033;28;20046;-75
2022/11/24 04:42:40;;;;;;;19.75;5.60;;;;;;;;;;4968459;28;20055;-75
2022/11/24 04:45:07;;;;;;;23.63;6.95;;;;;;;;;;4972148;28;20066;-75
2022/11/24 04:47:33;;;;;;;24.30;6.20;;;;;;;;;;4972690;28;20038;-75
2022/11/24 04:49:59;;;;;;;26.17;6.30;;;;;;;;;;4968708;28;20043;-75
2022/11/24 04:52:26;;;;;;;26.48;6.63;;;;;;;;;;4967656;28;20118;-75
2022/11/24 04:54:52;;;;;;;24.63;6.30;;;;;;;;;;4954462;28;20121;-74
2022/11/24 04:57:23;;;;;;;21.77;6.90;;;;;;;;;;4956623;28;20035;-75
2022/11/24 04:59:49;;;;;;;18.65;5.72;;;;;;;;;;4966061;28;20122;-74
2022/11/24 05:02:16;;;;;;;18.08;5.82;;;;;;;;;;4969803;28;20031;-74
2022/11/24 05:04:42;;;;;;;15.98;5.82;;;;;;;;;;4967923;28;20066;-74
2022/11/24 05:07:10;;;;;;;16.25;5.32;;;;;;;;;;4944997;28;20079;-73
2022/11/24 05:10:33;;;;;;;13.23;3.25;;;;;;;;;;4968914;28;20069;-74
2022/11/24 05:12:23;;;;;;;16.52;4.28;;;;;;;;;;4948624;28;20102;-73
2022/11/24 05:14:49;;;;;;;12.65;2.80;;;;;;;;;;4972125;28;20150;-75
2022/11/24 05:17:15;;;;;;;8.93;2.58;;;;;;;;;;4967902;28;20081;-75
2022/11/24 05:19:41;;;;;;;9.50;2.47;;;;;;;;;;4968813;28;20038;-75
2022/11/24 05:22:07;;;;;;;10.65;2.58;;;;;;;;;;4963775;28;20062;-74
2022/11/24 05:24:33;;;;;;;9.48;2.83;;;;;;;;;;4970798;28;21330;-75
2022/11/24 05:27:00;;;;;;;11.75;2.40;;;;;;;;;;4971002;28;20039;-76
2022/11/24 05:29:26;;;;;;;6.38;2.03;;;;;;;;;;4953984;28;20058;-76
2022/11/24 05:31:52;;;;;;;8.63;2.10;;;;;;;;;;4969513;28;20512;-75
2022/11/24 05:34:19;;;;;;;8.52;2.35;;;;;;;;;;4973313;28;20122;-74
2022/11/24 05:37:03;;;;;;;8.15;1.83;;;;;;;;;;4964962;28;20034;-74
2022/11/24 05:39:35;;;;;;;4.85;2.10;;;;;;;;;;4968876;28;20508;-75
2022/11/24 05:42:39;;;;;;;5.70;2.10;;;;;;;;;;4965905;28;20031;-74
2022/11/24 05:44:48;;;;;;;11.05;1.50;;;;;;;;;;4969144;28;20038;-76
2022/11/24 05:47:14;;;;;;;6.93;1.90;;;;;;;;;;4964789;28;20027;-74
2022/11/24 05:49:40;;;;;;;7.43;2.00;;;;;;;;;;4964991;28;20452;-75
2022/11/24 05:52:06;;;;;;;3.22;1.30;;;;;;;;;;4972060;28;20038;-75
2022/11/24 05:54:32;;;;;;;6.88;1.45;;;;;;;;;;4969822;28;20031;-75
2022/11/24 05:56:58;;;;;;;3.65;1.33;;;;;;;;;;4959621;28;20054;-76
2022/11/24 05:59:24;;;;;;;7.57;1.25;;;;;;;;;;4966438;28;20501;-75
2022/11/24 06:01:51;;;;;;;9.30;1.50;;;;;;;;;;4970922;28;20034;-75
2022/11/24 06:04:17;;;;;;;3.63;1.27;;;;;;;;;;4969469;28;20057;-74
2022/11/24 06:06:43;;;;;;;6.57;1.45;;;;;;;;;;4956742;28;20492;-76
2022/11/24 06:09:09;;;;;;;6.63;1.52;;;;;;;;;;4964329;28;20066;-76
2022/11/24 06:11:35;;;;;;;6.97;1.50;;;;;;;;;;4963642;28;20065;-76
2022/11/24 06:14:01;;;;;;;4.00;1.60;;;;;;;;;;4971653;28;20449;-76
2022/11/24 06:16:27;;;;;;;6.97;1.70;;;;;;;;;;4962963;28;20102;-76
2022/11/24 06:18:53;;;;;;;5.13;1.85;;;;;;;;;;4964151;28;20473;-76
2022/11/24 06:21:19;;;;;;;8.32;1.70;;;;;;;;;;4965507;28;20034;-76
2022/11/24 06:23:48;;;;;;;8.30;2.15;;;;;;;;;;4953710;28;20042;-77
2022/11/24 06:26:16;;;;;;;7.85;2.78;;;;;;;;;;4968988;28;20035;-76
2022/11/24 06:28:42;;;;;;;9.38;2.78;;;;;;;;;;4967417;28;20055;-77
2022/11/24 06:31:09;;;;;;;11.60;3.05;;;;;;;;;;4967342;28;20029;-77
2022/11/24 06:33:36;;;;;;;9.57;3.47;;;;;;;;;;4978714;28;20110;-77
2022/11/24 06:36:04;;;;;;;13.20;4.03;;;;;;;;;;4986580;28;20058;-76
2022/11/24 06:38:30;;;;;;;11.38;4.22;;;;;;;;;;4968735;28;20351;-77
2022/11/24 06:41:05;;;;;;;13.23;4.68;;;;;;;;;;4954738;28;20027;-76
2022/11/24 06:43:31;;;;;;;12.80;4.78;;;;;;;;;;4977195;28;20035;-76
2022/11/24 06:45:57;;;;;;;16.02;5.95;;;;;;;;;;4972616;28;20062;-75
2022/11/24 06:48:24;;;;;;;18.08;6.32;;;;;;;;;;4975711;28;20143;-76
2022/11/24 06:50:50;;;;;;;14.77;6.00;;;;;;;;;;4967721;28;20114;-76
2022/11/24 06:53:16;;;;;;;18.98;6.95;;;;;;;;;;4967097;28;20027;-76
2022/11/24 06:55:43;;;;;;;15.48;6.72;;;;;;;;;;4967155;28;20428;-77
2022/11/24 06:58:09;;;;;;;17.30;7.00;;;;;;;;;;4966672;28;20027;-76
2022/11/24 07:00:36;;;;;;;18.23;7.72;;;;;;;;;;4954506;28;20042;-76
2022/11/24 07:03:02;;;;;;;16.08;8.10;;;;;;;;;;4966191;28;20027;-77
2022/11/24 07:05:28;;;;;;;18.52;7.45;;;;;;;;;;4965305;28;20189;-76
2022/11/24 07:08:00;;;;;;;17.20;8.95;;;;;;;;;;4966573;28;20352;-75
2022/11/24 07:10:26;;;;;;;18.90;8.38;;;;;;;;;;4977648;28;20100;-76
2022/11/24 07:12:52;;;;;;;16.98;9.15;;;;;;;;;;4974912;28;20424;-77
2022/11/24 07:15:19;;;;;;;23.58;8.80;;;;;;;;;;4970192;28;20027;-75
2022/11/24 07:17:46;;;;;;;24.77;9.73;;;;;;;;;;4967968;28;20441;-77
2022/11/24 07:20:12;;;;;;;15.85;8.68;;;;;;;;;;4971688;28;20129;-76
2022/11/24 07:22:37;;;;;;;20.38;9.45;;;;;;;;;;4972465;28;20118;-75
2022/11/24 07:25:08;;;;;;;22.17;10.13;;;;;;;;;;4972613;28;20035;-75
2022/11/24 07:27:34;;;;;;;24.70;8.98;;;;;;;;;;4971737;28;20034;-76
2022/11/24 07:30:00;;;;;;;24.70;9.27;;;;;;;;;;4971365;28;20082;-76
2022/11/24 07:32:26;;;;;;;26.15;9.68;;;;;;;;;;4951167;28;20346;-75
2022/11/24 07:34:53;;;;;;;28.08;9.35;;;;;;;;;;4954171;28;20027;-75
2022/11/24 07:37:20;;;;;;;25.95;10.07;;;;;;;;;;4984303;28;20034;-75
2022/11/24 07:39:46;;;;;;;22.13;10.00;;;;;;;;;;4984500;28;20105;-76
2022/11/24 07:42:12;;;;;;;22.13;10.18;;;;;;;;;;4954351;28;20488;-76
2022/11/24 07:44:39;;;;;;;23.33;10.73;;;;;;;;;;4955012;28;20031;-75
2022/11/24 07:47:05;;;;;;;25.17;10.90;;;;;;;;;;4973511;28;20015;-76
2022/11/24 07:49:31;;;;;;;21.08;10.18;;;;;;;;;;4945260;28;20058;-76
2022/11/24 07:51:57;;;;;;;25.92;10.23;;;;;;;;;;4971871;28;20066;-74
2022/11/24 07:54:23;;;;;;;27.33;10.52;;;;;;;;;;4951197;29;20031;-74
2022/11/24 07:56:49;;;;;;;26.85;9.70;;;;;;;;;;4961421;28;20062;-75
2022/11/24 07:59:15;;;;;;;25.15;10.35;;;;;;;;;;4965493;28;20571;-75
2022/11/24 08:01:41;;;;;;;25.52;10.57;;;;;;;;;;4952224;28;20046;-75
2022/11/24 08:04:09;;;;;;;26.88;11.70;;;;;;;;;;4964385;28;20456;-74
2022/11/24 08:06:35;;;;;;;25.63;10.93;;;;;;;;;;4967061;28;20547;-75
2022/11/24 08:09:01;;;;;;;28.13;10.98;;;;;;;;;;4979392;28;20031;-75
2022/11/24 08:11:30;;;;;;;26.42;11.73;;;;;;;;;;4974620;28;20041;-75
2022/11/24 08:13:56;;;;;;;26.52;12.18;;;;;;;;;;4968434;28;20089;-75
2022/11/24 08:16:22;;;;;;;36.50;11.13;;;;;;;;;;4964810;28;20043;-75
2022/11/24 08:18:54;;;;;;;25.98;12.82;;;;;;;;;;4967894;28;20526;-74
2022/11/24 08:21:22;;;;;;;36.47;13.00;;;;;;;;;;4968428;28;20042;-75
2022/11/24 08:23:48;;;;;;;26.17;10.88;;;;;;;;;;4964100;28;20020;-75
2022/11/24 08:26:17;;;;;;;26.50;11.52;;;;;;;;;;4970322;28;20023;-74
2022/11/24 08:28:44;;;;;;;25.35;11.30;;;;;;;;;;4965608;28;20595;-75
2022/11/24 08:31:11;;;;;;;26.60;11.80;;;;;;;;;;4967461;28;20159;-74
2022/11/24 08:33:38;;;;;;;27.98;10.50;;;;;;;;;;4961886;28;20268;-74
2022/11/24 08:36:23;;;;;;;26.85;10.73;;;;;;;;;;4963385;28;20034;-75
2022/11/24 08:38:53;;;;;;;29.08;11.30;;;;;;;;;;4967829;28;20519;-75
2022/11/24 08:41:19;;;;;;;29.60;11.00;;;;;;;;;;4963905;28;20090;-75
2022/11/24 08:43:45;;;;;;;32.92;12.57;;;;;;;;;;4967689;28;20035;-74
2022/11/24 08:46:12;;;;;;;28.98;11.35;;;;;;;;;;4968489;28;20042;-75
2022/11/24 08:48:40;;;;;;;26.25;10.95;;;;;;;;;;4969169;28;20445;-74
2022/11/24 08:51:15;;;;;;;28.75;9.73;;;;;;;;;;4968021;28;20104;-74
2022/11/24 08:53:42;;;;;;;24.17;9.80;;;;;;;;;;4967590;28;20043;-76
2022/11/24 08:56:09;;;;;;;34.13;8.65;;;;;;;;;;4967652;28;20074;-73
2022/11/24 08:58:35;;;;;;;24.77;8.50;;;;;;;;;;4968394;28;20070;-73
2022/11/24 09:01:05;;;;;;;25.35;8.27;;;;;;;;;;4968715;28;20448;-75
2022/11/24 09:03:32;;;;;;;28.05;8.20;;;;;;;;;;4966003;28;20023;-75
2022/11/24 09:05:58;;;;;;;24.50;7.50;;;;;;;;;;4970864;28;20082;-74
2022/11/24 09:08:24;;;;;;;21.15;7.28;;;;;;;;;;4970446;28;20042;-75
2022/11/24 09:10:50;;;;;;;24.38;6.47;;;;;;;;;;4971462;28;20110;-75
2022/11/24 09:13:18;;;;;;;29.52;6.40;;;;;;;;;;4977420;28;20031;-73
2022/11/24 09:15:44;;;;;;;26.35;6.22;;;;;;;;;;4969801;28;20043;-74
2022/11/24 09:18:10;;;;;;;31.38;6.63;;;;;;;;;;4961770;28;20031;-75
2022/11/24 09:20:36;;;;;;;24.48;5.50;;;;;;;;;;4957066;28;20064;-74
2022/11/24 09:23:02;;;;;;;24.58;5.95;;;;;;;;;;4975770;28;20460;-75
2022/11/24 09:25:28;;;;;;;26.02;5.15;;;;;;;;;;4973841;28;20062;-75
2022/11/24 09:27:55;;;;;;;21.65;4.28;;;;;;;;;;4974172;28;20061;-75
2022/11/24 09:30:22;;;;;;;21.38;4.47;;;;;;;;;;4957783;28;20055;-74
2022/11/24 09:32:48;;;;;;;28.48;5.55;;;;;;;;;;4974663;28;20050;-76
2022/11/24 09:35:14;;;;;;;23.38;4.55;;;;;;;;;;4974709;28;20240;-75
2022/11/24 09:37:42;;;;;;;17.02;4.38;;;;;;;;;;4961155;28;20034;-74
2022/11/24 09:40:10;;;;;;;15.52;3.60;;;;;;;;;;4974413;28;20118;-76
2022/11/24 09:42:54;;;;;;;25.70;5.03;;;;;;;;;;4973953;28;20026;-75
2022/11/24 09:45:26;;;;;;;21.75;3.88;;;;;;;;;;4972881;28;20023;-75
2022/11/24 09:48:11;;;;;;;20.67;4.90;;;;;;;;;;4974661;28;20031;-75
2022/11/24 09:50:37;;;;;;;24.33;4.38;;;;;;;;;;4973621;28;20042;-76
2022/11/24 09:53:10;;;;;;;21.92;3.85;;;;;;;;;;4973878;28;20038;-76
2022/11/24 09:55:49;;;;;;;22.60;4.50;;;;;;;;;;4965997;28;20040;-74
2022/11/24 09:58:34;;;;;;;27.67;4.88;;;;;;;;;;4972399;28;20043;-76
2022/11/24 10:01:00;;;;;;;18.73;4.32;;;;;;;;;;4973394;28;20090;-74
2022/11/24 10:03:26;;;;;;;21.40;4.03;;;;;;;;;;4973560;28;20090;-74
2022/11/24 10:05:52;;;;;;;18.33;3.88;;;;;;;;;;4972994;28;20152;-74
2022/11/24 10:08:38;;;;;;;18.70;3.70;;;;;;;;;;4953207;28;20042;-73
2022/11/24 10:11:11;;;;;;;19.40;4.68;;;;;;;;;;4954126;29;20046;-73
2022/11/24 10:13:47;;;;;;;22.20;3.72;;;;;;;;;;4953921;29;20106;-73
2022/11/24 10:16:16;;;;;;;25.80;4.75;;;;;;;;;;4941162;28;20027;-73
2022/11/24 10:18:54;;;;;;;22.77;4.30;;;;;;;;;;4956340;28;20043;-73
2022/11/24 10:21:35;;;;;;;20.20;4.45;;;;;;;;;;4965768;28;20094;-74
2022/11/24 10:24:07;;;;;;;21.52;4.03;;;;;;;;;;4965502;28;20039;-73
2022/11/24 10:26:43;;;;;;;22.33;4.63;;;;;;;;;;4956348;28;20106;-72
2022/11/24 10:29:12;;;;;;;20.42;4.55;;;;;;;;;;4971797;28;20054;-73
2022/11/24 10:31:42;;;;;;;26.35;4.47;;;;;;;;;;4955010;28;20475;-74
2022/11/24 10:34:21;;;;;;;24.98;3.90;;;;;;;;;;4969292;28;20458;-73
2022/11/24 10:36:50;;;;;;;29.75;4.20;;;;;;;;;;4972337;28;20026;-73
2022/11/24 10:39:32;;;;;;;26.02;5.20;;;;;;;;;;4971252;28;20174;-73
2022/11/24 10:42:02;;;;;;;23.65;4.72;;;;;;;;;;4956337;28;20491;-73
2022/11/24 10:44:28;;;;;;;18.02;3.92;;;;;;;;;;4974495;28;20027;-73
2022/11/24 10:46:54;;;;;;;22.55;3.97;;;;;;;;;;4956070;28;20018;-72
2022/11/24 10:49:25;;;;;;;21.55;3.78;;;;;;;;;;4971977;28;20465;-72
2022/11/24 10:52:10;;;;;;;24.52;4.68;;;;;;;;;;4973463;28;20031;-73
2022/11/24 10:54:52;;;;;;;26.88;5.93;;;;;;;;;;4971437;28;20066;-73
2022/11/24 10:57:18;;;;;;;;;;;;;;;;;;4971534;28;20022;-73
2022/11/24 10:59:44;;;;;;;37.92;5.00;;;;;;;;;;4972768;28;19994;-73
2022/11/24 11:02:26;;;;;;;23.17;4.90;;;;;;;;;;4972186;28;20409;-73
2022/11/24 11:04:52;;;;;;;35.08;7.18;;;;;;;;;;4970292;28;20089;-74
2022/11/24 11:07:19;;;;;;;26.70;5.55;;;;;;;;;;4971413;28;20404;-74
2022/11/24 11:09:46;;;;;;;28.42;5.40;;;;;;;;;;4970868;28;20121;-74
2022/11/24 11:12:23;;;;;;;21.65;4.97;;;;;;;;;;4967657;28;20061;-74
2022/11/24 11:14:49;;;;;;;27.13;5.53;;;;;;;;;;4935484;29;20366;-74
2022/11/24 11:17:34;;;;;;;28.33;6.05;;;;;;;;;;4953757;28;20027;-75
2022/11/24 11:20:17;;;;;;;26.73;6.22;;;;;;;;;;4976012;28;20060;-75
2022/11/24 11:22:45;;;;;;;35.30;5.97;;;;;;;;;;4969803;28;20488;-75
2022/11/24 11:25:11;;;;;;;24.25;5.88;;;;;;;;;;4971609;28;20473;-74
2022/11/24 11:27:38;;;;;;;21.30;5.43;;;;;;;;;;4969743;28;20031;-75
2022/11/24 11:30:21;;;;;;;33.13;6.45;;;;;;;;;;4971781;28;20082;-75
2022/11/24 11:32:51;;;;;;;27.88;6.30;;;;;;;;;;4970134;28;20035;-74
2022/11/24 11:35:18;;;;;;;26.40;5.13;;;;;;;;;;4961281;28;20039;-75
2022/11/24 11:37:44;;;;;;;31.10;5.93;;;;;;;;;;4966027;28;20045;-75
2022/11/24 11:40:17;;;;;;;27.95;5.70;;;;;;;;;;4967520;28;20497;-76
2022/11/24 11:43:02;;;;;;;28.08;6.00;;;;;;;;;;4966363;28;20579;-76
2022/11/24 11:45:41;;;;;;;25.58;4.65;;;;;;;;;;4965657;28;20138;-76
2022/11/24 11:48:39;;;;;;;26.75;4.75;;;;;;;;;;4968084;28;20547;-76
2022/11/24 11:51:20;;;;;;;20.58;4.53;;;;;;;;;;4920588;28;20071;-76
2022/11/24 11:53:55;;;;;;;34.80;6.60;;;;;;;;;;4970189;28;20105;-76
2022/11/24 11:56:26;;;;;;;26.58;5.47;;;;;;;;;;4963544;28;20134;-77
2022/11/24 11:58:52;;;;;;;;;;;;;;;;;;4947123;28;20473;-75
2022/11/24 12:01:36;;;;;;;35.95;6.30;;;;;;;;;;4968682;28;19910;-76
2022/11/24 12:04:21;;;;;;;25.02;4.90;;;;;;;;;;4968695;28;20160;-76
2022/11/24 12:06:50;;;;;;;22.50;4.72;;;;;;;;;;4979374;28;20042;-75
2022/11/24 12:09:35;;;;;;;32.70;5.72;;;;;;;;;;4967520;28;20057;-76
2022/11/24 12:12:04;;;;;;;29.55;6.60;;;;;;;;;;4988792;28;20081;-75
2022/11/24 12:14:30;;;;;;;25.75;4.40;;;;;;;;;;4975247;28;20023;-76
2022/11/24 12:16:56;;;;;;;19.95;4.68;;;;;;;;;;4969944;28;20030;-76
2022/11/24 12:19:25;;;;;;;25.13;5.50;;;;;;;;;;4968567;28;20102;-76
2022/11/24 12:22:03;;;;;;;21.02;5.05;;;;;;;;;;4968245;28;20034;-77
2022/11/24 12:24:38;;;;;;;28.25;6.18;;;;;;;;;;4973789;28;20033;-76
2022/11/24 12:27:08;;;;;;;20.95;4.55;;;;;;;;;;4965371;28;20031;-74
2022/11/24 12:29:52;;;;;;;23.63;5.03;;;;;;;;;;4962996;28;20054;-76
2022/11/24 12:32:18;;;;;;;22.15;5.22;;;;;;;;;;4952019;28;20345;-77
2022/11/24 12:35:03;;;;;;;23.70;4.82;;;;;;;;;;4968026;28;20030;-77
2022/11/24 12:37:40;;;;;;;27.33;5.63;;;;;;;;;;4967387;28;20524;-76
2022/11/24 12:40:13;;;;;;;27.20;4.90;;;;;;;;;;4951853;28;20030;-76
2022/11/24 12:42:45;;;;;;;20.02;4.40;;;;;;;;;;4954259;28;20159;-75
2022/11/24 12:45:14;;;;;;;19.92;4.18;;;;;;;;;;4967372;28;20106;-76
2022/11/24 12:47:52;;;;;;;33.13;5.63;;;;;;;;;;4970974;28;20034;-75
2022/11/24 12:50:19;;;;;;;27.95;5.60;;;;;;;;;;4971010;28;20484;-77
2022/11/24 12:52:55;;;;;;;30.05;5.07;;;;;;;;;;4976236;28;20334;-75
2022/11/24 12:55:22;;;;;;;28.80;5.13;;;;;;;;;;4974606;28;20038;-79
2022/11/24 12:58:07;;;;;;;20.23;4.68;;;;;;;;;;4976788;28;20382;-78
2022/11/24 13:00:51;;;;;;;21.52;5.55;;;;;;;;;;4973867;28;20400;-75
2022/11/24 13:03:32;;;;;;;21.55;4.57;;;;;;;;;;4973646;28;20019;-76
2022/11/24 13:06:18;;;;;;;29.92;5.65;;;;;;;;;;4954723;28;20126;-75
2022/11/24 13:08:45;;;;;;;24.77;4.60;;;;;;;;;;4973397;28;20050;-76
2022/11/24 13:11:20;;;;;;;24.98;4.35;;;;;;;;;;4959180;28;20373;-76
2022/11/24 13:13:59;;;;;;;20.45;4.55;;;;;;;;;;4959015;28;20381;-76
2022/11/24 13:16:25;;;;;;;23.30;5.95;;;;;;;;;;4973164;28;20019;-76
2022/11/24 13:18:54;;;;;;;21.15;4.97;;;;;;;;;;4971342;28;20231;-77
2022/11/24 13:21:39;;;;;;;36.33;5.93;;;;;;;;;;4969549;28;20045;-77
2022/11/24 13:24:05;;;;;;;19.30;4.88;;;;;;;;;;4955799;29;20031;-74
2022/11/24 13:26:45;;;;;;;25.83;4.97;;;;;;;;;;4939212;28;20052;-74
2022/11/24 13:29:27;;;;;;;28.13;5.67;;;;;;;;;;4970918;28;20059;-77
2022/11/24 13:32:02;;;;;;;22.33;4.63;;;;;;;;;;4968210;28;20388;-75
2022/11/24 13:34:44;;;;;;;27.25;4.40;;;;;;;;;;4971195;28;20134;-75
2022/11/24 13:37:16;;;;;;;26.27;4.85;;;;;;;;;;4974783;28;20031;-75
2022/11/24 13:39:58;;;;;;;19.83;4.00;;;;;;;;;;4974357;28;20107;-75
2022/11/24 13:42:25;;;;;;;19.83;4.22;;;;;;;;;;4973747;28;20289;-76
2022/11/24 13:44:51;;;;;;;32.90;4.93;;;;;;;;;;4967068;28;20172;-77
2022/11/24 13:47:36;;;;;;;29.02;4.93;;;;;;;;;;4969861;28;20022;-76
2022/11/24 13:50:21;;;;;;;25.83;5.20;;;;;;;;;;4956688;28;20034;-75
2022/11/24 13:52:47;;;;;;;25.15;4.50;;;;;;;;;;4973612;28;20150;-75
2022/11/24 13:55:18;;;;;;;22.80;4.78;;;;;;;;;;4975020;28;20035;-75
2022/11/24 13:57:58;;;;;;;21.20;3.63;;;;;;;;;;4969458;28;20031;-75
2022/11/24 14:00:26;;;;;;;25.95;4.78;;;;;;;;;;4970453;28;20079;-74
2022/11/24 14:02:54;;;;;;;26.23;4.50;;;;;;;;;;4969556;28;20089;-75
2022/11/24 14:05:23;;;;;;;28.58;5.18;;;;;;;;;;4970308;28;20031;-75
2022/11/24 14:07:50;;;;;;;34.63;5.15;;;;;;;;;;4969089;28;20033;-73
2022/11/24 14:10:19;;;;;;;27.08;4.55;;;;;;;;;;4968120;28;20037;-77
2022/11/24 14:12:45;;;;;;;21.40;4.63;;;;;;;;;;4970827;28;20031;-77
2022/11/24 14:15:21;;;;;;;25.77;4.65;;;;;;;;;;4956979;28;20042;-77
2022/11/24 14:17:47;;;;;;;25.15;4.40;;;;;;;;;;4971270;28;20182;-77
2022/11/24 14:20:22;;;;;;;26.33;4.45;;;;;;;;;;4957141;28;20039;-79
2022/11/24 14:22:48;;;;;;;30.02;4.88;;;;;;;;;;4949779;28;20034;-78
2022/11/24 14:25:34;;;;;;;29.30;4.72;;;;;;;;;;4970170;28;20043;-78
2022/11/24 14:28:00;;;;;;;22.58;4.57;;;;;;;;;;4971579;28;20030;-77
2022/11/24 14:30:26;;;;;;;33.67;5.25;;;;;;;;;;4948632;28;20516;-77
2022/11/24 14:32:53;;;;;;;31.92;5.68;;;;;;;;;;4951385;28;20062;-77
2022/11/24 14:35:26;;;;;;;25.20;5.43;;;;;;;;;;4957181;28;20200;-78
2022/11/24 14:37:52;;;;;;;33.58;7.05;;;;;;;;;;4957291;28;20031;-77
2022/11/24 14:40:37;;;;;;;24.40;4.15;;;;;;;;;;4951788;28;20127;-78
2022/11/24 14:43:03;;;;;;;29.20;4.93;;;;;;;;;;4952971;28;20031;-79
2022/11/24 14:45:29;;;;;;;31.55;5.03;;;;;;;;;;4946432;28;20454;-78